Time;durP1;ratioP1;P1;durP2;ratioP2;P2;SDS_P1;SDS_P2;PMS_P1;PMS_P2;Temp;Humidity;BMP_temperature;BMP_pressure;BME280_temperature;BME280_humidity;BME280_pressure;Samples;Min_cycle;Max_cycle;Signal;HPM_P1;HPM_P2
2021/10/08 00:00:20;;;;;;;21.50;16.02;;;13.50;99.90;;;;;;2097400;28;20035;-72
2021/10/08 00:01:20;;;;;;;18.17;14.75;;;13.50;99.90;;;;;;2096605;28;20017;-73
2021/10/08 00:02:21;;;;;;;20.23;15.35;;;13.50;99.90;;;;;;2097384;28;20039;-74
2021/10/08 00:03:21;;;;;;;25.63;19.65;;;13.50;99.90;;;;;;2097481;28;20174;-73
2021/10/08 00:04:22;;;;;;;53.33;47.53;;;13.50;99.90;;;;;;2097357;28;20097;-73
2021/10/08 00:05:23;;;;;;;31.17;26.75;;;13.50;99.90;;;;;;2097294;28;20178;-73
2021/10/08 00:06:23;;;;;;;26.02;22.50;;;13.50;99.90;;;;;;2097493;28;20082;-73
2021/10/08 00:07:24;;;;;;;22.65;16.95;;;13.50;99.90;;;;;;2097326;28;20039;-74
2021/10/08 00:08:25;;;;;;;25.50;21.55;;;13.50;99.90;;;;;;2097190;28;20024;-74
2021/10/08 00:09:29;;;;;;;29.15;24.33;;;13.50;99.90;;;;;;2097167;28;20063;-74
2021/10/08 00:10:29;;;;;;;24.45;19.92;;;13.50;99.90;;;;;;2097283;28;20441;-73
2021/10/08 00:11:30;;;;;;;26.05;17.58;;;13.50;99.90;;;;;;2096174;28;20058;-73
2021/10/08 00:12:31;;;;;;;22.35;16.35;;;13.50;99.90;;;;;;2097238;28;20028;-74
2021/10/08 00:13:32;;;;;;;22.83;16.40;;;13.50;99.90;;;;;;2097252;28;20107;-73
2021/10/08 00:14:33;;;;;;;20.60;16.25;;;13.50;99.90;;;;;;2097238;28;20028;-73
2021/10/08 00:15:33;;;;;;;20.80;15.10;;;13.50;99.90;;;;;;2097114;28;20039;-73
2021/10/08 00:16:34;;;;;;;20.52;15.73;;;13.50;99.90;;;;;;2088339;28;20063;-73
2021/10/08 00:17:35;;;;;;;20.50;15.73;;;13.50;99.90;;;;;;2088410;28;20033;-73
2021/10/08 00:18:36;;;;;;;23.58;17.02;;;13.50;99.90;;;;;;2097229;28;20023;-73
2021/10/08 00:19:37;;;;;;;22.05;17.02;;;13.50;99.90;;;;;;2097193;28;20036;-73
2021/10/08 00:20:38;;;;;;;25.27;17.45;;;13.50;99.90;;;;;;2097203;28;20082;-73
2021/10/08 00:21:38;;;;;;;21.90;16.63;;;13.50;99.90;;;;;;2096178;28;20114;-73
2021/10/08 00:22:39;;;;;;;23.95;16.63;;;13.50;99.90;;;;;;2097231;28;20043;-73
2021/10/08 00:23:40;;;;;;;23.20;17.40;;;13.50;99.90;;;;;;2096539;28;20439;-73
2021/10/08 00:24:40;;;;;;;22.35;17.10;;;13.50;99.90;;;;;;2096706;28;20067;-72
2021/10/08 00:25:41;;;;;;;21.90;16.50;;;13.50;99.90;;;;;;2096641;28;20496;-73
2021/10/08 00:26:42;;;;;;;24.60;18.02;;;13.50;99.90;;;;;;2096676;28;20060;-73
2021/10/08 00:27:42;;;;;;;24.75;17.13;;;13.50;99.90;;;;;;2097300;28;20103;-73
2021/10/08 00:28:43;;;;;;;22.17;16.52;;;13.50;99.90;;;;;;2097258;28;20028;-73
2021/10/08 00:29:43;;;;;;;22.40;16.20;;;13.50;99.90;;;;;;2097226;28;20464;-74
2021/10/08 00:30:44;;;;;;;22.23;16.60;;;13.50;99.90;;;;;;2096466;28;20105;-73
2021/10/08 00:31:45;;;;;;;28.75;24.00;;;13.50;99.90;;;;;;2095778;28;20111;-73
2021/10/08 00:32:45;;;;;;;25.48;18.77;;;13.50;99.90;;;;;;2097272;28;20116;-73
2021/10/08 00:33:46;;;;;;;24.88;17.65;;;13.50;99.90;;;;;;2097187;28;20480;-73
2021/10/08 00:34:47;;;;;;;23.58;17.65;;;13.50;99.90;;;;;;2096486;28;20032;-72
2021/10/08 00:35:48;;;;;;;21.15;16.40;;;13.50;99.90;;;;;;2096370;28;20024;-73
2021/10/08 00:36:50;;;;;;;23.73;17.38;;;13.50;99.90;;;;;;2096452;28;20106;-73
2021/10/08 00:37:51;;;;;;;27.92;19.38;;;13.50;99.90;;;;;;2096438;28;20048;-73
2021/10/08 00:38:54;;;;;;;25.70;19.23;;;13.50;99.90;;;;;;2097168;28;20031;-72
2021/10/08 00:39:55;;;;;;;27.63;21.08;;;13.50;99.90;;;;;;2088153;28;20028;-73
2021/10/08 00:40:55;;;;;;;26.95;21.48;;;13.40;99.90;;;;;;2088152;28;20092;-73
2021/10/08 00:41:56;;;;;;;29.20;18.77;;;13.40;99.90;;;;;;2095377;28;20032;-74
2021/10/08 00:42:57;;;;;;;26.65;19.27;;;13.40;99.90;;;;;;2096344;28;20102;-73
2021/10/08 00:43:58;;;;;;;28.63;19.23;;;13.40;99.90;;;;;;2096252;28;20078;-73
2021/10/08 00:44:59;;;;;;;24.60;18.85;;;13.40;99.90;;;;;;2096223;28;20097;-72
2021/10/08 00:46:01;;;;;;;24.92;17.80;;;13.40;99.90;;;;;;2087933;28;20099;-73
2021/10/08 00:47:11;;;;;;;27.77;18.77;;;13.40;99.90;;;;;;2087972;28;20079;-73
2021/10/08 00:48:13;;;;;;;26.80;20.85;;;13.40;99.90;;;;;;2082743;28;20455;-73
2021/10/08 00:49:14;;;;;;;29.95;23.90;;;13.40;99.90;;;;;;2088148;28;20041;-73
2021/10/08 00:50:15;;;;;;;28.77;23.30;;;13.40;99.90;;;;;;2096367;28;20107;-73
2021/10/08 00:51:16;;;;;;;28.50;21.90;;;13.40;99.90;;;;;;2096198;28;20028;-72
2021/10/08 00:52:16;;;;;;;28.05;21.30;;;13.40;99.90;;;;;;2096957;28;20029;-73
2021/10/08 00:53:18;;;;;;;28.00;21.98;;;13.40;99.90;;;;;;2096640;28;20527;-73
2021/10/08 00:54:19;;;;;;;26.92;21.42;;;13.40;99.90;;;;;;2096991;28;20543;-73
2021/10/08 00:55:19;;;;;;;28.02;20.77;;;13.40;99.90;;;;;;2088075;28;20075;-73
2021/10/08 00:56:21;;;;;;;26.90;20.05;;;13.40;99.90;;;;;;2088059;28;20138;-73
2021/10/08 00:57:22;;;;;;;28.05;21.23;;;13.40;99.90;;;;;;2088319;28;20044;-73
2021/10/08 00:58:22;;;;;;;29.65;23.40;;;13.40;99.90;;;;;;2088225;28;20744;-73
2021/10/08 00:59:26;;;;;;;28.58;22.90;;;13.40;99.90;;;;;;2079955;28;20025;-73
2021/10/08 01:00:27;;;;;;;29.92;22.27;;;13.40;99.90;;;;;;2088476;28;20033;-73
2021/10/08 01:01:28;;;;;;;29.20;21.15;;;13.40;99.90;;;;;;2095597;28;20027;-72
2021/10/08 01:02:30;;;;;;;27.80;21.17;;;13.40;99.90;;;;;;2096251;28;20427;-73
2021/10/08 01:03:30;;;;;;;46.55;38.67;;;13.40;99.90;;;;;;2096319;28;20025;-72
2021/10/08 01:04:33;;;;;;;42.78;35.40;;;13.40;99.90;;;;;;2088094;28;20029;-73
2021/10/08 01:05:33;;;;;;;36.67;31.08;;;13.40;99.90;;;;;;2088188;28;20402;-73
2021/10/08 01:06:34;;;;;;;33.20;25.52;;;13.40;99.90;;;;;;2088248;28;20145;-72
2021/10/08 01:07:35;;;;;;;30.08;23.73;;;13.40;99.90;;;;;;2096142;28;20025;-73
2021/10/08 01:08:36;;;;;;;28.25;22.33;;;13.40;99.90;;;;;;2096416;28;20094;-73
2021/10/08 01:09:37;;;;;;;31.35;23.05;;;13.40;99.90;;;;;;2096253;28;20115;-73
2021/10/08 01:10:40;;;;;;;33.15;23.25;;;13.40;99.90;;;;;;2087956;28;20536;-74
2021/10/08 01:11:43;;;;;;;36.97;25.10;;;13.40;99.90;;;;;;2087169;28;20080;-74
2021/10/08 01:12:44;;;;;;;32.70;23.75;;;13.50;99.90;;;;;;2096364;28;20056;-73
2021/10/08 01:13:47;;;;;;;31.25;23.50;;;13.40;99.90;;;;;;2096342;28;20024;-73
2021/10/08 01:14:49;;;;;;;29.35;22.30;;;13.40;99.90;;;;;;2088333;28;20029;-73
2021/10/08 01:15:55;;;;;;;42.05;32.92;;;13.40;99.90;;;;;;2096304;28;20058;-74
2021/10/08 01:16:57;;;;;;;43.45;35.95;;;13.40;99.90;;;;;;2089144;28;20017;-74
2021/10/08 01:17:59;;;;;;;65.18;55.30;;;13.40;99.90;;;;;;2088203;28;20079;-73
2021/10/08 01:19:00;;;;;;;47.10;40.58;;;13.40;99.90;;;;;;2088166;28;20029;-74
2021/10/08 01:20:11;;;;;;;40.00;29.40;;;13.40;99.90;;;;;;2088000;28;20114;-74
2021/10/08 01:21:18;;;;;;;40.05;26.20;;;13.40;99.90;;;;;;2095737;28;20025;-73
2021/10/08 01:22:19;;;;;;;37.08;26.00;;;13.40;99.90;;;;;;2096204;28;20117;-73
2021/10/08 01:23:25;;;;;;;32.35;23.40;;;13.40;99.90;;;;;;2088684;28;20512;-73
2021/10/08 01:24:28;;;;;;;33.08;24.08;;;13.40;99.90;;;;;;2088232;28;20119;-73
2021/10/08 01:25:34;;;;;;;30.67;23.48;;;13.30;99.90;;;;;;2096395;28;20086;-73
2021/10/08 01:26:38;;;;;;;35.65;25.95;;;13.30;99.90;;;;;;2096569;28;20031;-72
2021/10/08 01:27:41;;;;;;;33.05;25.25;;;13.30;99.90;;;;;;2088103;28;20056;-72
2021/10/08 01:28:49;;;;;;;36.47;26.25;;;13.30;99.90;;;;;;2089423;28;20029;-72
2021/10/08 01:29:55;;;;;;;44.30;35.03;;;13.30;99.90;;;;;;2096398;28;20017;-72
2021/10/08 01:31:01;;;;;;;43.63;32.67;;;13.30;99.90;;;;;;2089000;28;20025;-72
2021/10/08 01:32:19;;;;;;;45.65;30.23;;;13.30;99.90;;;;;;2090237;28;20075;-72
2021/10/08 01:33:20;;;;;;;41.50;29.65;;;13.20;99.90;;;;;;2079644;28;20469;-72
2021/10/08 01:34:27;;;;;;;47.38;32.30;;;13.20;99.90;;;;;;2081411;28;20037;-72
2021/10/08 01:35:31;;;;;;;42.67;29.33;;;13.20;99.90;;;;;;2096303;28;20028;-72
2021/10/08 01:36:33;;;;;;;42.40;29.83;;;13.20;99.90;;;;;;2088203;28;20075;-72
2021/10/08 01:37:39;;;;;;;46.05;30.60;;;13.20;99.90;;;;;;2088561;28;20025;-72
2021/10/08 01:38:40;;;;;;;41.72;29.83;;;13.20;99.90;;;;;;2088041;28;20021;-72
2021/10/08 01:39:41;;;;;;;44.20;30.77;;;13.20;99.90;;;;;;2096319;28;20031;-73
2021/10/08 01:40:44;;;;;;;43.08;29.98;;;13.20;99.90;;;;;;2088273;28;20087;-73
2021/10/08 01:41:49;;;;;;;39.70;28.33;;;13.20;99.90;;;;;;2087742;28;20079;-73
2021/10/08 01:42:55;;;;;;;40.33;28.77;;;13.20;99.90;;;;;;2096483;28;20579;-73
2021/10/08 01:43:56;;;;;;;38.85;29.15;;;13.20;99.90;;;;;;2096115;28;20021;-73
2021/10/08 01:44:59;;;;;;;42.72;31.15;;;13.10;99.90;;;;;;2096406;28;20032;-73
2021/10/08 01:45:59;;;;;;;42.53;31.48;;;13.10;99.90;;;;;;2096210;28;20029;-74
2021/10/08 01:47:08;;;;;;;45.90;33.67;;;13.10;99.90;;;;;;2096302;28;20104;-73
2021/10/08 01:48:08;;;;;;;44.80;32.33;;;13.10;99.90;;;;;;2096293;28;20051;-73
2021/10/08 01:49:10;;;;;;;42.25;30.85;;;13.00;99.90;;;;;;2096230;28;20036;-75
2021/10/08 01:50:11;;;;;;;43.13;31.63;;;13.00;99.90;;;;;;2087908;28;20029;-73
2021/10/08 01:51:14;;;;;;;45.72;32.53;;;13.00;99.90;;;;;;2087105;28;20073;-74
2021/10/08 01:52:18;;;;;;;44.10;32.05;;;12.90;99.90;;;;;;2088152;28;20060;-72
2021/10/08 01:53:22;;;;;;;40.03;29.67;;;12.90;99.90;;;;;;2088215;28;20025;-73
2021/10/08 01:54:23;;;;;;;39.72;28.98;;;12.90;99.90;;;;;;2096204;28;20031;-73
2021/10/08 01:55:24;;;;;;;39.90;28.45;;;12.90;99.90;;;;;;2088119;28;20076;-72
2021/10/08 01:56:30;;;;;;;50.42;35.67;;;12.90;99.90;;;;;;2096430;28;20048;-73
2021/10/08 01:57:35;;;;;;;48.17;34.47;;;12.90;99.90;;;;;;2096435;28;20099;-73
2021/10/08 01:58:35;;;;;;;44.72;32.13;;;12.90;99.90;;;;;;2096360;28;20032;-72
2021/10/08 01:59:36;;;;;;;44.22;30.83;;;12.80;99.90;;;;;;2096234;28;20024;-73
2021/10/08 02:00:40;;;;;;;41.22;29.40;;;12.80;99.90;;;;;;2096083;28;20029;-72
2021/10/08 02:01:56;;;;;;;39.83;28.35;;;12.90;99.90;;;;;;2089099;28;20029;-73
2021/10/08 02:02:56;;;;;;;40.00;28.05;;;12.90;99.90;;;;;;2087846;28;20377;-72
2021/10/08 02:03:58;;;;;;;43.78;29.45;;;12.90;99.90;;;;;;2087950;28;20029;-73
2021/10/08 02:05:01;;;;;;;43.92;30.38;;;12.90;99.90;;;;;;2096232;28;20107;-73
2021/10/08 02:06:02;;;;;;;43.28;30.42;;;12.90;99.90;;;;;;2096247;28;20098;-72
2021/10/08 02:07:06;;;;;;;45.20;32.15;;;12.90;99.90;;;;;;2088198;28;20504;-72
2021/10/08 02:08:06;;;;;;;44.75;32.72;;;12.90;99.90;;;;;;2096048;28;20032;-72
2021/10/08 02:09:10;;;;;;;45.08;32.22;;;13.00;99.90;;;;;;2087943;28;20021;-72
2021/10/08 02:10:14;;;;;;;45.60;32.33;;;13.00;99.90;;;;;;2088229;28;20041;-73
2021/10/08 02:11:15;;;;;;;45.08;33.20;;;13.00;99.90;;;;;;2087050;28;20033;-72
2021/10/08 02:12:16;;;;;;;43.97;31.85;;;13.00;99.90;;;;;;2087722;28;20116;-72
2021/10/08 02:13:18;;;;;;;45.00;33.05;;;13.00;99.90;;;;;;2087813;28;20028;-73
2021/10/08 02:14:19;;;;;;;47.60;33.67;;;13.00;99.90;;;;;;2087781;28;20021;-73
2021/10/08 02:15:25;;;;;;;46.50;34.03;;;13.00;99.90;;;;;;2096218;28;20124;-73
2021/10/08 02:16:26;;;;;;;54.30;37.28;;;13.00;99.90;;;;;;2088445;28;20025;-73
2021/10/08 02:17:34;;;;;;;59.08;40.22;;;13.00;99.90;;;;;;2089568;28;20063;-72
2021/10/08 02:18:35;;;;;;;53.45;37.50;;;13.00;99.90;;;;;;2096832;28;20036;-72
2021/10/08 02:19:37;;;;;;;57.17;40.28;;;13.00;99.90;;;;;;2097511;28;20029;-72
2021/10/08 02:20:38;;;;;;;58.33;40.83;;;13.10;99.90;;;;;;2097587;28;20111;-72
2021/10/08 02:21:39;;;;;;;59.25;41.55;;;13.10;99.90;;;;;;2088480;28;20021;-72
2021/10/08 02:22:42;;;;;;;58.25;41.58;;;13.10;99.90;;;;;;2089467;28;20530;-72
2021/10/08 02:23:44;;;;;;;58.72;42.90;;;13.10;99.90;;;;;;2089473;28;20029;-72
2021/10/08 02:24:45;;;;;;;61.63;44.10;;;13.10;99.90;;;;;;2089120;28;20028;-74
2021/10/08 02:25:46;;;;;;;59.17;43.47;;;13.10;99.90;;;;;;2089350;28;20102;-72
2021/10/08 02:26:47;;;;;;;56.88;40.00;;;13.10;99.90;;;;;;2089253;28;20075;-72
2021/10/08 02:27:57;;;;;;;53.85;38.40;;;13.10;99.90;;;;;;2083707;28;20460;-72
2021/10/08 02:28:58;;;;;;;55.78;37.03;;;13.10;99.90;;;;;;2089508;28;20123;-73
2021/10/08 02:30:05;;;;;;;56.33;36.38;;;13.10;99.90;;;;;;2089946;28;20032;-73
2021/10/08 02:31:06;;;;;;;53.70;37.30;;;13.10;99.90;;;;;;2088909;28;20032;-74
2021/10/08 02:32:08;;;;;;;52.45;36.88;;;13.10;99.90;;;;;;2088807;28;20036;-73
2021/10/08 02:33:09;;;;;;;53.55;36.78;;;13.00;99.90;;;;;;2089322;28;20028;-72
2021/10/08 02:34:10;;;;;;;51.75;36.03;;;13.00;99.90;;;;;;2097626;28;20033;-73
2021/10/08 02:35:11;;;;;;;51.53;36.38;;;13.00;99.90;;;;;;2097716;28;20055;-72
2021/10/08 02:36:12;;;;;;;51.78;36.63;;;13.00;99.90;;;;;;2098211;28;20420;-73
2021/10/08 02:37:12;;;;;;;49.88;35.10;;;13.00;99.90;;;;;;2097604;28;20115;-73
2021/10/08 02:38:13;;;;;;;46.50;34.38;;;13.00;99.90;;;;;;2097656;28;20017;-72
2021/10/08 02:39:15;;;;;;;45.85;34.15;;;13.00;99.90;;;;;;2089346;28;20028;-74
2021/10/08 02:40:16;;;;;;;49.20;35.45;;;13.00;99.90;;;;;;2089205;28;20459;-72
2021/10/08 02:41:17;;;;;;;50.83;36.40;;;13.00;99.90;;;;;;2096537;28;20029;-72
2021/10/08 02:42:19;;;;;;;49.65;35.47;;;13.00;99.90;;;;;;2089338;28;20043;-72
2021/10/08 02:43:21;;;;;;;50.88;37.35;;;13.00;99.90;;;;;;2097299;28;20127;-72
2021/10/08 02:44:22;;;;;;;59.30;38.60;;;13.00;99.90;;;;;;2089310;28;20029;-72
2021/10/08 02:45:25;;;;;;;51.75;36.85;;;13.00;99.90;;;;;;2081073;28;20116;-72
2021/10/08 02:46:26;;;;;;;50.92;37.90;;;13.00;99.90;;;;;;2089493;28;20040;-72
2021/10/08 02:47:26;;;;;;;52.05;37.92;;;13.00;99.90;;;;;;2097393;28;20037;-71
2021/10/08 02:48:27;;;;;;;49.88;36.95;;;13.00;99.90;;;;;;2097389;28;20028;-71
2021/10/08 02:49:28;;;;;;;50.25;36.85;;;13.00;99.90;;;;;;2089228;28;20093;-72
2021/10/08 02:50:29;;;;;;;51.78;37.30;;;13.00;99.90;;;;;;2081033;28;20417;-74
2021/10/08 02:51:33;;;;;;;51.72;38.05;;;13.00;99.90;;;;;;2088468;28;20056;-72
2021/10/08 02:52:35;;;;;;;48.60;36.97;;;13.00;99.90;;;;;;2089786;28;20036;-72
2021/10/08 02:53:35;;;;;;;48.00;36.33;;;13.00;99.90;;;;;;2089443;28;20574;-71
2021/10/08 02:54:36;;;;;;;46.60;33.63;;;13.00;99.90;;;;;;2097296;28;20553;-73
2021/10/08 02:55:37;;;;;;;45.38;33.08;;;13.00;99.90;;;;;;2089198;28;20091;-72
2021/10/08 02:56:38;;;;;;;47.00;33.60;;;13.00;99.90;;;;;;2081093;28;20061;-71
2021/10/08 02:57:39;;;;;;;47.78;33.15;;;13.00;99.90;;;;;;2097344;28;20024;-72
2021/10/08 02:58:40;;;;;;;45.42;32.13;;;13.00;99.90;;;;;;2097366;28;20749;-72
2021/10/08 02:59:41;;;;;;;53.17;37.58;;;12.90;99.90;;;;;;2097503;28;20661;-72
2021/10/08 03:00:42;;;;;;;58.55;41.10;;;12.90;99.90;;;;;;2088968;28;20597;-71
2021/10/08 03:01:43;;;;;;;54.13;38.40;;;12.90;99.90;;;;;;2096643;28;20020;-72
2021/10/08 03:02:44;;;;;;;57.88;39.28;;;12.90;99.90;;;;;;2097184;28;20085;-71
2021/10/08 03:03:44;;;;;;;52.03;37.40;;;12.80;99.90;;;;;;2089079;28;20057;-73
2021/10/08 03:04:46;;;;;;;50.47;35.42;;;12.90;99.90;;;;;;2088922;28;20028;-72
2021/10/08 03:05:47;;;;;;;48.17;34.58;;;12.80;99.90;;;;;;2088951;28;20017;-72
2021/10/08 03:06:48;;;;;;;48.05;34.08;;;12.80;99.90;;;;;;2097289;28;20032;-72
2021/10/08 03:07:49;;;;;;;47.63;34.20;;;12.80;99.90;;;;;;2097312;28;20522;-73
2021/10/08 03:08:50;;;;;;;45.60;33.42;;;12.90;99.90;;;;;;2088964;28;20760;-72
2021/10/08 03:09:51;;;;;;;44.30;31.00;;;12.80;99.90;;;;;;2089084;28;20520;-73
2021/10/08 03:10:52;;;;;;;43.80;32.08;;;12.90;99.90;;;;;;2097312;28;20020;-72
2021/10/08 03:11:53;;;;;;;44.65;31.65;;;12.90;99.90;;;;;;2096240;28;20060;-73
2021/10/08 03:12:54;;;;;;;48.55;32.55;;;12.90;99.90;;;;;;2097295;28;20016;-71
2021/10/08 03:13:54;;;;;;;46.35;32.72;;;12.90;99.90;;;;;;2088938;28;20480;-71
2021/10/08 03:14:57;;;;;;;43.70;31.23;;;12.90;99.90;;;;;;2089237;28;20071;-71
2021/10/08 03:15:57;;;;;;;47.28;33.40;;;12.90;99.90;;;;;;2097079;28;20147;-74
2021/10/08 03:16:59;;;;;;;44.45;32.20;;;12.90;99.90;;;;;;2088965;28;20021;-75
2021/10/08 03:18:00;;;;;;;45.83;31.70;;;12.90;99.90;;;;;;2097379;28;20087;-73
2021/10/08 03:19:01;;;;;;;52.33;35.42;;;12.90;99.90;;;;;;2089041;28;20159;-72
2021/10/08 03:20:04;;;;;;;47.88;33.85;;;12.90;99.90;;;;;;2089202;28;20036;-73
2021/10/08 03:21:05;;;;;;;47.05;33.22;;;12.90;99.90;;;;;;2097199;28;20013;-72
2021/10/08 03:22:06;;;;;;;42.97;31.20;;;13.00;99.90;;;;;;2096584;28;20542;-72
2021/10/08 03:23:07;;;;;;;46.42;32.20;;;13.00;99.90;;;;;;2097215;28;20546;-71
2021/10/08 03:24:07;;;;;;;45.05;31.95;;;12.90;99.90;;;;;;2088793;28;20033;-72
2021/10/08 03:25:09;;;;;;;43.47;31.80;;;13.00;99.90;;;;;;2088546;28;20029;-72
2021/10/08 03:26:10;;;;;;;47.75;33.35;;;13.00;99.90;;;;;;2088810;28;20082;-72
2021/10/08 03:27:11;;;;;;;46.00;33.15;;;12.90;99.90;;;;;;2088681;28;20021;-71
2021/10/08 03:28:13;;;;;;;45.83;32.30;;;13.00;99.90;;;;;;2088704;28;20029;-74
2021/10/08 03:29:14;;;;;;;48.70;33.17;;;13.00;99.90;;;;;;2088770;28;20029;-72
2021/10/08 03:30:15;;;;;;;50.75;34.42;;;13.00;99.90;;;;;;2088797;28;20163;-72
2021/10/08 03:31:16;;;;;;;48.53;34.92;;;13.00;99.90;;;;;;2096205;28;20511;-73
2021/10/08 03:32:17;;;;;;;53.00;37.00;;;13.00;99.90;;;;;;2088749;28;20138;-72
2021/10/08 03:33:18;;;;;;;52.38;36.15;;;13.00;99.90;;;;;;2088682;28;20059;-72
2021/10/08 03:34:20;;;;;;;52.13;36.42;;;13.00;99.90;;;;;;2088758;28;20021;-73
2021/10/08 03:35:21;;;;;;;49.60;34.25;;;13.00;99.90;;;;;;2097036;28;20526;-72
2021/10/08 03:36:30;;;;;;;49.15;34.67;;;13.00;99.90;;;;;;2088626;28;20025;-75
2021/10/08 03:37:40;;;;;;;45.47;32.55;;;13.00;99.90;;;;;;2089910;28;20108;-72
2021/10/08 03:38:41;;;;;;;45.75;32.88;;;13.00;99.90;;;;;;2090078;28;20407;-72
2021/10/08 03:39:45;;;;;;;47.78;33.80;;;13.00;99.90;;;;;;2097032;28;20032;-74
2021/10/08 03:40:56;;;;;;;59.08;39.53;;;13.00;99.90;;;;;;2097589;28;20112;-72
2021/10/08 03:41:57;;;;;;;53.30;36.60;;;13.00;99.90;;;;;;2096233;28;20032;-74
2021/10/08 03:43:00;;;;;;;52.97;36.10;;;13.00;99.90;;;;;;2097172;28;20079;-74
2021/10/08 03:44:03;;;;;;;51.40;35.13;;;13.00;99.90;;;;;;2097074;28;20499;-72
2021/10/08 03:45:11;;;;;;;49.28;33.88;;;13.00;99.90;;;;;;2088891;28;20361;-72
2021/10/08 03:46:14;;;;;;;55.10;37.65;;;13.00;99.90;;;;;;2097103;28;20039;-72
2021/10/08 03:47:15;;;;;;;60.25;39.15;;;13.00;99.90;;;;;;2089343;28;20044;-72
2021/10/08 03:49:32;;;;;;;55.45;37.75;;;13.00;99.90;;;;;;2097261;28;20391;-75
2021/10/08 03:50:33;;;;;;;56.50;38.13;;;13.00;99.90;;;;;;2097105;28;20047;-75
2021/10/08 03:51:35;;;;;;;51.28;35.47;;;13.00;99.90;;;;;;2096690;28;20024;-74
2021/10/08 03:52:36;;;;;;;51.38;35.83;;;13.00;99.90;;;;;;2096779;28;20111;-74
2021/10/08 03:53:37;;;;;;;51.13;34.72;;;13.00;99.90;;;;;;2096971;28;20111;-73
2021/10/08 03:54:37;;;;;;;54.63;37.67;;;13.00;99.90;;;;;;2096836;28;20025;-73
2021/10/08 03:55:38;;;;;;;65.57;41.35;;;13.00;99.90;;;;;;2088644;28;20051;-73
2021/10/08 03:56:39;;;;;;;61.70;40.50;;;13.00;99.90;;;;;;2096788;28;20048;-74
2021/10/08 03:57:40;;;;;;;59.75;40.08;;;13.00;99.90;;;;;;2096822;28;20095;-73
2021/10/08 03:58:40;;;;;;;60.22;39.33;;;13.00;99.90;;;;;;2096862;28;20032;-74
2021/10/08 03:59:41;;;;;;;53.97;37.25;;;13.00;99.90;;;;;;2088853;28;20044;-73
2021/10/08 04:00:43;;;;;;;60.88;39.00;;;13.00;99.90;;;;;;2080581;28;20033;-73
2021/10/08 04:01:48;;;;;;;56.75;37.55;;;13.00;99.90;;;;;;2088447;28;20057;-73
2021/10/08 04:02:49;;;;;;;54.05;35.97;;;13.00;99.90;;;;;;2088403;28;20503;-73
2021/10/08 04:03:50;;;;;;;51.88;35.50;;;13.00;99.90;;;;;;2088681;28;20083;-73
2021/10/08 04:04:51;;;;;;;50.00;35.05;;;13.00;99.90;;;;;;2097651;28;20114;-73
2021/10/08 04:05:52;;;;;;;51.80;35.42;;;13.00;99.90;;;;;;2088960;28;20055;-72
2021/10/08 04:06:53;;;;;;;56.20;37.15;;;13.00;99.90;;;;;;2089140;28;20017;-73
2021/10/08 04:07:55;;;;;;;55.45;37.13;;;13.00;99.90;;;;;;2089016;28;20078;-73
2021/10/08 04:08:56;;;;;;;55.65;37.15;;;13.00;99.90;;;;;;2080809;28;20104;-72
2021/10/08 04:09:57;;;;;;;51.00;35.10;;;13.00;99.90;;;;;;2097163;28;20024;-73
2021/10/08 04:10:58;;;;;;;61.00;39.72;;;13.00;99.90;;;;;;2096921;28;20244;-73
2021/10/08 04:11:59;;;;;;;58.03;38.72;;;13.00;99.90;;;;;;2096442;28;20392;-73
2021/10/08 04:13:00;;;;;;;57.88;38.25;;;13.00;99.90;;;;;;2088831;28;20056;-73
2021/10/08 04:14:03;;;;;;;62.20;39.30;;;13.00;99.90;;;;;;2089901;28;20020;-73
2021/10/08 04:15:05;;;;;;;55.35;37.45;;;13.00;99.90;;;;;;2090326;28;20068;-73
2021/10/08 04:16:05;;;;;;;55.40;37.58;;;13.00;99.90;;;;;;2097033;28;20040;-73
2021/10/08 04:17:06;;;;;;;54.80;34.88;;;13.00;99.90;;;;;;2096719;28;20027;-73
2021/10/08 04:18:07;;;;;;;50.80;33.75;;;13.00;99.90;;;;;;2097178;28;20070;-73
2021/10/08 04:19:07;;;;;;;49.72;34.40;;;13.00;99.90;;;;;;2097005;28;20020;-72
2021/10/08 04:20:09;;;;;;;52.83;35.65;;;13.00;99.90;;;;;;2088590;28;20025;-73
2021/10/08 04:21:10;;;;;;;53.78;34.95;;;13.00;99.90;;;;;;2088178;28;20027;-72
2021/10/08 04:22:11;;;;;;;49.45;34.70;;;13.00;99.90;;;;;;2088583;28;20021;-72
2021/10/08 04:23:12;;;;;;;57.67;37.78;;;13.00;99.90;;;;;;2080556;28;20120;-72
2021/10/08 04:24:14;;;;;;;53.72;35.80;;;13.00;99.90;;;;;;2080525;28;20037;-73
2021/10/08 04:25:15;;;;;;;53.70;35.67;;;13.00;99.90;;;;;;2097241;28;20797;-72
2021/10/08 04:26:16;;;;;;;50.33;34.90;;;13.00;99.90;;;;;;2097748;28;20024;-72
2021/10/08 04:27:16;;;;;;;50.58;35.22;;;13.00;99.90;;;;;;2098067;28;20024;-72
2021/10/08 04:28:18;;;;;;;54.80;35.40;;;13.00;99.90;;;;;;2097076;28;20043;-74
2021/10/08 04:29:19;;;;;;;59.25;37.70;;;13.00;99.90;;;;;;2097038;28;20074;-72
2021/10/08 04:30:19;;;;;;;55.88;36.45;;;12.90;99.90;;;;;;2089306;28;20413;-73
2021/10/08 04:31:20;;;;;;;55.50;36.58;;;12.90;99.90;;;;;;2087953;28;20063;-73
2021/10/08 04:32:21;;;;;;;58.55;38.50;;;12.90;99.90;;;;;;2096936;28;20427;-72
2021/10/08 04:33:25;;;;;;;64.18;39.33;;;12.90;99.90;;;;;;2088850;28;20028;-72
2021/10/08 04:34:30;;;;;;;60.78;39.67;;;12.90;99.90;;;;;;2089793;28;20017;-73
2021/10/08 04:35:31;;;;;;;65.22;39.55;;;13.00;99.90;;;;;;2088630;28;20031;-72
2021/10/08 04:36:31;;;;;;;60.78;38.25;;;13.10;99.90;;;;;;2096867;28;20021;-72
2021/10/08 04:37:33;;;;;;;65.15;38.90;;;13.10;99.90;;;;;;2096995;28;20151;-73
2021/10/08 04:38:33;;;;;;;67.72;40.65;;;13.10;99.90;;;;;;2088666;28;20029;-74
2021/10/08 04:39:39;;;;;;;58.63;39.30;;;13.10;99.90;;;;;;2089266;28;20029;-73
2021/10/08 04:40:41;;;;;;;62.22;38.97;;;13.10;99.90;;;;;;2080656;28;20026;-73
2021/10/08 04:41:42;;;;;;;59.10;38.13;;;13.10;99.90;;;;;;2079533;28;20125;-74
2021/10/08 04:42:46;;;;;;;59.33;37.85;;;13.00;99.90;;;;;;2096852;28;20055;-72
2021/10/08 04:43:49;;;;;;;59.15;37.72;;;13.00;99.90;;;;;;2089987;28;20024;-73
2021/10/08 04:44:50;;;;;;;63.00;40.08;;;13.00;99.90;;;;;;2097931;28;20068;-73
2021/10/08 04:45:53;;;;;;;62.80;39.17;;;13.10;99.90;;;;;;2089596;28;20017;-73
2021/10/08 04:46:55;;;;;;;61.72;39.50;;;13.10;99.90;;;;;;2088990;28;20025;-72
2021/10/08 04:47:57;;;;;;;63.63;37.78;;;13.10;99.90;;;;;;2088444;28;20526;-73
2021/10/08 04:48:58;;;;;;;66.70;39.65;;;13.00;99.90;;;;;;2080608;28;20045;-74
2021/10/08 04:50:02;;;;;;;62.30;38.17;;;13.00;99.90;;;;;;2088997;28;20031;-72
2021/10/08 04:51:06;;;;;;;65.38;38.50;;;13.00;99.90;;;;;;2096472;28;20565;-73
2021/10/08 04:52:09;;;;;;;59.75;38.22;;;13.00;99.90;;;;;;2096720;28;20041;-73
2021/10/08 04:53:19;;;;;;;61.58;37.85;;;13.00;99.90;;;;;;2089086;28;20025;-73
2021/10/08 04:54:20;;;;;;;58.30;35.63;;;13.00;99.90;;;;;;2089678;28;20036;-73
2021/10/08 04:55:21;;;;;;;61.35;38.58;;;12.90;99.90;;;;;;2096742;28;20593;-74
2021/10/08 04:56:23;;;;;;;62.33;38.58;;;12.90;99.90;;;;;;2088550;28;20025;-73
2021/10/08 04:57:24;;;;;;;64.00;39.92;;;12.90;99.90;;;;;;2088426;28;20079;-73
2021/10/08 04:58:26;;;;;;;60.95;37.97;;;13.00;99.90;;;;;;2088371;28;20029;-72
2021/10/08 04:59:30;;;;;;;59.55;38.15;;;13.00;99.90;;;;;;2096962;28;20032;-72
2021/10/08 05:00:31;;;;;;;59.72;38.28;;;12.90;99.90;;;;;;2096765;28;20029;-73
2021/10/08 05:01:34;;;;;;;66.00;40.35;;;12.90;99.90;;;;;;2088054;28;20252;-73
2021/10/08 05:02:36;;;;;;;62.25;38.00;;;13.00;99.90;;;;;;2088347;28;20040;-73
2021/10/08 05:03:38;;;;;;;66.10;39.15;;;12.90;99.90;;;;;;2088620;28;20479;-73
2021/10/08 05:04:40;;;;;;;62.47;38.35;;;12.90;99.90;;;;;;2088590;28;20044;-72
2021/10/08 05:05:52;;;;;;;67.43;40.10;;;12.90;99.90;;;;;;2088787;28;20118;-74
2021/10/08 05:06:58;;;;;;;62.85;38.85;;;13.00;99.90;;;;;;2096813;28;20083;-73
2021/10/08 05:07:59;;;;;;;66.80;41.08;;;12.90;99.90;;;;;;2088400;28;20028;-73
2021/10/08 05:08:59;;;;;;;63.92;39.28;;;13.00;99.90;;;;;;2096820;28;20066;-73
2021/10/08 05:10:00;;;;;;;59.95;37.65;;;12.90;99.90;;;;;;2088628;28;20115;-72
2021/10/08 05:11:01;;;;;;;58.85;36.38;;;13.00;99.90;;;;;;2088349;28;20413;-73
2021/10/08 05:12:03;;;;;;;57.38;36.83;;;12.90;99.90;;;;;;2088101;28;20067;-73
2021/10/08 05:13:04;;;;;;;61.10;36.83;;;12.90;99.90;;;;;;2088598;28;20040;-73
2021/10/08 05:14:04;;;;;;;58.33;35.80;;;12.90;99.90;;;;;;2096627;28;20016;-73
2021/10/08 05:15:10;;;;;;;53.63;35.38;;;12.90;99.90;;;;;;2096734;28;20090;-73
2021/10/08 05:16:12;;;;;;;64.60;39.28;;;12.90;99.90;;;;;;2088602;28;20130;-73